Terminal Aerodrome Forecast
Issued by NWS Twin Cities, MN

Home | Current Version | Previous Version | Text Only | Print | Product List | Glossary On
Versions: 1 2 3 4 5 6 7 8 9 10 11 12 13 14 15 16 17 18 19 20 21 22 23 24 25
000
FTUS43 KMPX 211300 AAA
TAFMSP
TAF AMD
KMSP 211324Z 2113/2218 12009KT P6SM FEW015 SCT025 OVC050
      TEMPO 2113/2115 BKN015
     FM211500 14009KT P6SM BKN040
     FM212000 18007KT P6SM SCT040
     FM220600 VRB03KT 6SM BR SCT005
     FM220800 VRB03KT 4SM BR OVC004
     FM221400 09007KT P6SM SCT012 SCT035=

USA.gov is the U.S. government's official web portal to all federal, state and local government web resources and services.